sensor_id;sensor_type;location;lat;lon;timestamp;temperature;humidity
14170;DHT22;63889;50.596;8.690;2022-11-15T00:01:45;10.70;99.90
14170;DHT22;63889;50.596;8.690;2022-11-15T00:04:11;10.80;99.90
14170;DHT22;63889;50.596;8.690;2022-11-15T00:06:37;10.70;99.90
14170;DHT22;63889;50.596;8.690;2022-11-15T00:09:03;10.70;99.90
14170;DHT22;63889;50.596;8.690;2022-11-15T00:11:28;10.90;99.90
14170;DHT22;63889;50.596;8.690;2022-11-15T00:13:55;11.00;99.90
14170;DHT22;63889;50.596;8.690;2022-11-15T00:16:22;10.90;99.90
14170;DHT22;63889;50.596;8.690;2022-11-15T00:18:47;11.00;99.90
14170;DHT22;63889;50.596;8.690;2022-11-15T00:21:14;10.90;99.90
14170;DHT22;63889;50.596;8.690;2022-11-15T00:23:40;10.90;99.90
14170;DHT22;63889;50.596;8.690;2022-11-15T00:26:06;10.90;99.90
14170;DHT22;63889;50.596;8.690;2022-11-15T00:28:32;10.90;99.90
14170;DHT22;63889;50.596;8.690;2022-11-15T00:31:05;10.80;99.90
14170;DHT22;63889;50.596;8.690;2022-11-15T00:33:31;10.60;99.90
14170;DHT22;63889;50.596;8.690;2022-11-15T00:36:02;10.50;99.90
14170;DHT22;63889;50.596;8.690;2022-11-15T00:38:33;10.40;99.90
14170;DHT22;63889;50.596;8.690;2022-11-15T00:41:00;10.50;99.90
14170;DHT22;63889;50.596;8.690;2022-11-15T00:43:26;10.60;99.90
14170;DHT22;63889;50.596;8.690;2022-11-15T00:45:51;10.70;99.90
14170;DHT22;63889;50.596;8.690;2022-11-15T00:48:17;10.70;99.90
14170;DHT22;63889;50.596;8.690;2022-11-15T00:50:42;10.80;99.90
14170;DHT22;63889;50.596;8.690;2022-11-15T00:53:08;10.80;99.90
14170;DHT22;63889;50.596;8.690;2022-11-15T00:55:34;10.90;99.90
14170;DHT22;63889;50.596;8.690;2022-11-15T00:57:59;10.90;99.90
14170;DHT22;63889;50.596;8.690;2022-11-15T01:00:25;10.90;99.90
14170;DHT22;63889;50.596;8.690;2022-11-15T01:02:50;11.00;99.90
14170;DHT22;63889;50.596;8.690;2022-11-15T01:05:16;10.90;99.90
14170;DHT22;63889;50.596;8.690;2022-11-15T01:07:42;10.90;99.90
14170;DHT22;63889;50.596;8.690;2022-11-15T01:10:08;11.00;99.90
14170;DHT22;63889;50.596;8.690;2022-11-15T01:12:33;11.10;99.90
14170;DHT22;63889;50.596;8.690;2022-11-15T01:14:59;11.00;99.90
14170;DHT22;63889;50.596;8.690;2022-11-15T01:17:25;11.00;99.90
14170;DHT22;63889;50.596;8.690;2022-11-15T01:19:50;11.10;99.90
14170;DHT22;63889;50.596;8.690;2022-11-15T01:22:16;11.10;99.90
14170;DHT22;63889;50.596;8.690;2022-11-15T01:24:42;11.10;99.90
14170;DHT22;63889;50.596;8.690;2022-11-15T01:27:08;11.10;99.90
14170;DHT22;63889;50.596;8.690;2022-11-15T01:29:33;11.10;99.90
14170;DHT22;63889;50.596;8.690;2022-11-15T01:31:59;11.10;99.90
14170;DHT22;63889;50.596;8.690;2022-11-15T01:34:24;11.10;99.90
14170;DHT22;63889;50.596;8.690;2022-11-15T01:36:50;11.10;99.90
14170;DHT22;63889;50.596;8.690;2022-11-15T01:39:15;10.90;99.90
14170;DHT22;63889;50.596;8.690;2022-11-15T01:41:42;10.80;99.90
14170;DHT22;63889;50.596;8.690;2022-11-15T01:44:43;10.80;99.90
14170;DHT22;63889;50.596;8.690;2022-11-15T01:47:36;10.80;99.90
14170;DHT22;63889;50.596;8.690;2022-11-15T01:50:08;10.90;99.90
14170;DHT22;63889;50.596;8.690;2022-11-15T01:52:36;11.00;99.90
14170;DHT22;63889;50.596;8.690;2022-11-15T01:55:16;11.10;99.90
14170;DHT22;63889;50.596;8.690;2022-11-15T01:57:45;11.10;99.90
14170;DHT22;63889;50.596;8.690;2022-11-15T02:00:12;11.00;99.90
14170;DHT22;63889;50.596;8.690;2022-11-15T02:02:38;11.00;99.90
14170;DHT22;63889;50.596;8.690;2022-11-15T02:05:04;11.00;99.90
14170;DHT22;63889;50.596;8.690;2022-11-15T02:07:31;10.90;99.90
14170;DHT22;63889;50.596;8.690;2022-11-15T02:10:03;10.90;99.90
14170;DHT22;63889;50.596;8.690;2022-11-15T02:12:30;10.80;99.90
14170;DHT22;63889;50.596;8.690;2022-11-15T02:14:56;10.80;99.90
14170;DHT22;63889;50.596;8.690;2022-11-15T02:29:05;11.00;99.90
14170;DHT22;63889;50.596;8.690;2022-11-15T02:31:50;11.20;99.90
14170;DHT22;63889;50.596;8.690;2022-11-15T02:43:00;11.20;99.90
14170;DHT22;63889;50.596;8.690;2022-11-15T02:45:58;11.30;99.90
14170;DHT22;63889;50.596;8.690;2022-11-15T02:48:25;11.10;99.90
14170;DHT22;63889;50.596;8.690;2022-11-15T02:50:51;11.10;99.90
14170;DHT22;63889;50.596;8.690;2022-11-15T02:53:17;11.00;99.90
14170;DHT22;63889;50.596;8.690;2022-11-15T02:55:46;11.10;99.90
14170;DHT22;63889;50.596;8.690;2022-11-15T03:01:18;11.00;99.90
14170;DHT22;63889;50.596;8.690;2022-11-15T03:06:35;11.00;99.90
14170;DHT22;63889;50.596;8.690;2022-11-15T03:12:07;11.00;99.90
14170;DHT22;63889;50.596;8.690;2022-11-15T03:14:36;11.00;99.90
14170;DHT22;63889;50.596;8.690;2022-11-15T03:17:26;11.20;99.90
14170;DHT22;63889;50.596;8.690;2022-11-15T03:19:55;11.20;99.90
14170;DHT22;63889;50.596;8.690;2022-11-15T03:22:24;11.20;99.90
14170;DHT22;63889;50.596;8.690;2022-11-15T03:24:58;11.20;99.90
14170;DHT22;63889;50.596;8.690;2022-11-15T03:27:31;11.30;99.90
14170;DHT22;63889;50.596;8.690;2022-11-15T03:30:02;11.30;99.90
14170;DHT22;63889;50.596;8.690;2022-11-15T03:32:31;11.30;99.90
14170;DHT22;63889;50.596;8.690;2022-11-15T03:35:01;11.20;99.90
14170;DHT22;63889;50.596;8.690;2022-11-15T03:37:51;11.20;99.90
14170;DHT22;63889;50.596;8.690;2022-11-15T03:40:22;11.30;99.90
14170;DHT22;63889;50.596;8.690;2022-11-15T03:45:43;11.40;99.90
14170;DHT22;63889;50.596;8.690;2022-11-15T03:48:14;11.30;99.90
14170;DHT22;63889;50.596;8.690;2022-11-15T03:50:42;11.30;99.90
14170;DHT22;63889;50.596;8.690;2022-11-15T03:53:09;11.40;99.90
14170;DHT22;63889;50.596;8.690;2022-11-15T03:55:34;11.40;99.90
14170;DHT22;63889;50.596;8.690;2022-11-15T03:58:00;11.40;99.90
14170;DHT22;63889;50.596;8.690;2022-11-15T04:00:27;11.40;99.90
14170;DHT22;63889;50.596;8.690;2022-11-15T04:02:53;11.30;99.90
14170;DHT22;63889;50.596;8.690;2022-11-15T04:05:19;11.20;99.90
14170;DHT22;63889;50.596;8.690;2022-11-15T04:07:44;11.20;99.90
14170;DHT22;63889;50.596;8.690;2022-11-15T04:10:11;11.10;99.90
14170;DHT22;63889;50.596;8.690;2022-11-15T04:12:39;11.10;99.90
14170;DHT22;63889;50.596;8.690;2022-11-15T04:15:10;11.10;99.90
14170;DHT22;63889;50.596;8.690;2022-11-15T04:17:39;11.20;99.90
14170;DHT22;63889;50.596;8.690;2022-11-15T04:20:27;11.30;99.90
14170;DHT22;63889;50.596;8.690;2022-11-15T04:23:19;11.30;99.90
14170;DHT22;63889;50.596;8.690;2022-11-15T04:26:05;11.20;99.90
14170;DHT22;63889;50.596;8.690;2022-11-15T04:28:32;11.20;99.90
14170;DHT22;63889;50.596;8.690;2022-11-15T04:30:58;11.20;99.90
14170;DHT22;63889;50.596;8.690;2022-11-15T04:33:24;11.30;99.90
14170;DHT22;63889;50.596;8.690;2022-11-15T04:35:49;11.30;99.90
14170;DHT22;63889;50.596;8.690;2022-11-15T04:38:34;11.30;99.90
14170;DHT22;63889;50.596;8.690;2022-11-15T04:41:00;11.30;99.90
14170;DHT22;63889;50.596;8.690;2022-11-15T04:43:26;11.20;99.90
14170;DHT22;63889;50.596;8.690;2022-11-15T04:45:52;11.30;99.90
14170;DHT22;63889;50.596;8.690;2022-11-15T04:48:17;11.30;99.90
14170;DHT22;63889;50.596;8.690;2022-11-15T04:50:43;11.20;99.90
14170;DHT22;63889;50.596;8.690;2022-11-15T04:53:08;11.20;99.90
14170;DHT22;63889;50.596;8.690;2022-11-15T04:55:34;11.30;99.90
14170;DHT22;63889;50.596;8.690;2022-11-15T04:58:00;11.30;99.90
14170;DHT22;63889;50.596;8.690;2022-11-15T05:00:27;11.40;99.90
14170;DHT22;63889;50.596;8.690;2022-11-15T05:02:54;11.30;99.90
14170;DHT22;63889;50.596;8.690;2022-11-15T05:05:38;11.20;99.90
14170;DHT22;63889;50.596;8.690;2022-11-15T05:08:04;11.20;99.90
14170;DHT22;63889;50.596;8.690;2022-11-15T05:10:30;11.30;99.90
14170;DHT22;63889;50.596;8.690;2022-11-15T05:12:55;11.30;99.90
14170;DHT22;63889;50.596;8.690;2022-11-15T05:15:21;11.30;99.90
14170;DHT22;63889;50.596;8.690;2022-11-15T05:17:46;11.30;99.90
14170;DHT22;63889;50.596;8.690;2022-11-15T05:20:12;11.20;99.90
14170;DHT22;63889;50.596;8.690;2022-11-15T05:22:38;11.20;99.90
14170;DHT22;63889;50.596;8.690;2022-11-15T05:25:04;11.20;99.90
14170;DHT22;63889;50.596;8.690;2022-11-15T05:27:29;11.20;99.90
14170;DHT22;63889;50.596;8.690;2022-11-15T05:29:55;11.10;99.90
14170;DHT22;63889;50.596;8.690;2022-11-15T05:32:20;11.00;99.90
14170;DHT22;63889;50.596;8.690;2022-11-15T05:34:46;10.90;99.90
14170;DHT22;63889;50.596;8.690;2022-11-15T05:37:12;10.80;99.90
14170;DHT22;63889;50.596;8.690;2022-11-15T05:39:38;10.70;99.90
14170;DHT22;63889;50.596;8.690;2022-11-15T05:42:14;10.60;99.90
14170;DHT22;63889;50.596;8.690;2022-11-15T05:44:44;10.40;99.90
14170;DHT22;63889;50.596;8.690;2022-11-15T05:47:23;10.40;99.90
14170;DHT22;63889;50.596;8.690;2022-11-15T05:49:52;10.40;99.90
14170;DHT22;63889;50.596;8.690;2022-11-15T05:52:21;10.40;99.90
14170;DHT22;63889;50.596;8.690;2022-11-15T05:54:47;10.30;99.90
14170;DHT22;63889;50.596;8.690;2022-11-15T05:57:13;10.30;99.90
14170;DHT22;63889;50.596;8.690;2022-11-15T05:59:39;10.20;99.90
14170;DHT22;63889;50.596;8.690;2022-11-15T06:02:06;10.20;99.90
14170;DHT22;63889;50.596;8.690;2022-11-15T06:04:31;10.20;99.90
14170;DHT22;63889;50.596;8.690;2022-11-15T06:06:58;10.20;99.90
14170;DHT22;63889;50.596;8.690;2022-11-15T06:09:24;10.20;99.90
14170;DHT22;63889;50.596;8.690;2022-11-15T06:11:49;10.20;99.90
14170;DHT22;63889;50.596;8.690;2022-11-15T06:14:15;10.20;99.90
14170;DHT22;63889;50.596;8.690;2022-11-15T06:16:40;10.20;99.90
14170;DHT22;63889;50.596;8.690;2022-11-15T06:19:07;10.20;99.90
14170;DHT22;63889;50.596;8.690;2022-11-15T06:21:32;10.20;99.90
14170;DHT22;63889;50.596;8.690;2022-11-15T06:23:58;10.20;99.90
14170;DHT22;63889;50.596;8.690;2022-11-15T06:26:24;10.30;99.90
14170;DHT22;63889;50.596;8.690;2022-11-15T06:28:49;10.30;99.90
14170;DHT22;63889;50.596;8.690;2022-11-15T06:31:15;10.40;99.90
14170;DHT22;63889;50.596;8.690;2022-11-15T06:33:40;10.40;99.90
14170;DHT22;63889;50.596;8.690;2022-11-15T06:36:09;10.30;99.90
14170;DHT22;63889;50.596;8.690;2022-11-15T06:38:35;10.30;99.90
14170;DHT22;63889;50.596;8.690;2022-11-15T06:41:06;10.30;99.90
14170;DHT22;63889;50.596;8.690;2022-11-15T06:43:33;10.30;99.90
14170;DHT22;63889;50.596;8.690;2022-11-15T06:45:59;10.40;99.90
14170;DHT22;63889;50.596;8.690;2022-11-15T06:48:25;10.50;99.90
14170;DHT22;63889;50.596;8.690;2022-11-15T06:50:55;10.70;99.90
14170;DHT22;63889;50.596;8.690;2022-11-15T06:53:21;10.80;99.90
14170;DHT22;63889;50.596;8.690;2022-11-15T06:55:47;10.80;99.90
14170;DHT22;63889;50.596;8.690;2022-11-15T06:58:13;10.80;99.90
14170;DHT22;63889;50.596;8.690;2022-11-15T07:00:38;10.80;99.90
14170;DHT22;63889;50.596;8.690;2022-11-15T07:03:04;10.80;99.90
14170;DHT22;63889;50.596;8.690;2022-11-15T07:05:30;10.80;99.90
14170;DHT22;63889;50.596;8.690;2022-11-15T07:07:57;10.70;99.90
14170;DHT22;63889;50.596;8.690;2022-11-15T07:10:23;10.80;99.90
14170;DHT22;63889;50.596;8.690;2022-11-15T07:12:51;10.70;99.90
14170;DHT22;63889;50.596;8.690;2022-11-15T07:15:17;10.70;99.90
14170;DHT22;63889;50.596;8.690;2022-11-15T07:17:43;10.70;99.90
14170;DHT22;63889;50.596;8.690;2022-11-15T07:20:09;10.80;99.90
14170;DHT22;63889;50.596;8.690;2022-11-15T07:22:34;10.70;99.90
14170;DHT22;63889;50.596;8.690;2022-11-15T07:25:00;10.70;99.90
14170;DHT22;63889;50.596;8.690;2022-11-15T07:27:25;10.80;99.90
14170;DHT22;63889;50.596;8.690;2022-11-15T07:29:51;10.90;99.90
14170;DHT22;63889;50.596;8.690;2022-11-15T07:32:16;11.00;99.90
14170;DHT22;63889;50.596;8.690;2022-11-15T07:34:42;11.10;99.90
14170;DHT22;63889;50.596;8.690;2022-11-15T07:37:08;11.10;99.90
14170;DHT22;63889;50.596;8.690;2022-11-15T07:39:33;11.10;99.90
14170;DHT22;63889;50.596;8.690;2022-11-15T07:41:59;11.10;99.90
14170;DHT22;63889;50.596;8.690;2022-11-15T07:44:43;11.20;99.90
14170;DHT22;63889;50.596;8.690;2022-11-15T07:47:09;11.30;99.90
14170;DHT22;63889;50.596;8.690;2022-11-15T07:49:34;11.40;99.90
14170;DHT22;63889;50.596;8.690;2022-11-15T07:52:00;11.30;99.90
14170;DHT22;63889;50.596;8.690;2022-11-15T07:54:26;11.30;99.90
14170;DHT22;63889;50.596;8.690;2022-11-15T07:56:51;11.30;99.90
14170;DHT22;63889;50.596;8.690;2022-11-15T07:59:17;11.30;99.90
14170;DHT22;63889;50.596;8.690;2022-11-15T08:01:42;11.30;99.90
14170;DHT22;63889;50.596;8.690;2022-11-15T08:04:10;11.20;99.90
14170;DHT22;63889;50.596;8.690;2022-11-15T08:06:36;11.10;99.90
14170;DHT22;63889;50.596;8.690;2022-11-15T08:09:02;11.10;99.90
14170;DHT22;63889;50.596;8.690;2022-11-15T08:11:27;11.10;99.90
14170;DHT22;63889;50.596;8.690;2022-11-15T08:13:53;11.20;99.90
14170;DHT22;63889;50.596;8.690;2022-11-15T08:16:18;11.20;99.90
14170;DHT22;63889;50.596;8.690;2022-11-15T08:18:44;11.20;99.90
14170;DHT22;63889;50.596;8.690;2022-11-15T08:21:11;11.20;99.90
14170;DHT22;63889;50.596;8.690;2022-11-15T08:23:37;11.20;99.90
14170;DHT22;63889;50.596;8.690;2022-11-15T08:26:04;11.30;99.90
14170;DHT22;63889;50.596;8.690;2022-11-15T08:28:31;11.40;99.90
14170;DHT22;63889;50.596;8.690;2022-11-15T08:30:57;11.40;99.90
14170;DHT22;63889;50.596;8.690;2022-11-15T08:33:23;11.40;99.90
14170;DHT22;63889;50.596;8.690;2022-11-15T08:35:48;11.60;99.90
14170;DHT22;63889;50.596;8.690;2022-11-15T08:38:14;11.60;99.90
14170;DHT22;63889;50.596;8.690;2022-11-15T08:40:40;11.70;99.90
14170;DHT22;63889;50.596;8.690;2022-11-15T08:43:05;11.70;99.90
14170;DHT22;63889;50.596;8.690;2022-11-15T08:45:33;11.60;99.90
14170;DHT22;63889;50.596;8.690;2022-11-15T08:48:02;11.60;99.90
14170;DHT22;63889;50.596;8.690;2022-11-15T08:50:28;11.70;99.90
14170;DHT22;63889;50.596;8.690;2022-11-15T08:52:53;11.80;99.90
14170;DHT22;63889;50.596;8.690;2022-11-15T08:55:19;11.80;99.90
14170;DHT22;63889;50.596;8.690;2022-11-15T08:57:45;11.90;99.90
14170;DHT22;63889;50.596;8.690;2022-11-15T09:00:11;12.00;99.90
14170;DHT22;63889;50.596;8.690;2022-11-15T09:02:39;12.00;99.90
14170;DHT22;63889;50.596;8.690;2022-11-15T09:05:05;12.10;99.90
14170;DHT22;63889;50.596;8.690;2022-11-15T09:07:31;12.10;99.90
14170;DHT22;63889;50.596;8.690;2022-11-15T09:09:57;12.20;99.90
14170;DHT22;63889;50.596;8.690;2022-11-15T09:12:23;12.10;99.90
14170;DHT22;63889;50.596;8.690;2022-11-15T09:14:49;12.10;99.90
14170;DHT22;63889;50.596;8.690;2022-11-15T09:17:15;12.30;99.90
14170;DHT22;63889;50.596;8.690;2022-11-15T09:19:41;12.30;99.90
14170;DHT22;63889;50.596;8.690;2022-11-15T09:22:07;12.40;99.90
14170;DHT22;63889;50.596;8.690;2022-11-15T09:24:34;12.50;99.90
14170;DHT22;63889;50.596;8.690;2022-11-15T09:26:59;12.50;99.90
14170;DHT22;63889;50.596;8.690;2022-11-15T09:29:25;12.60;99.90
14170;DHT22;63889;50.596;8.690;2022-11-15T09:31:54;12.60;99.90
14170;DHT22;63889;50.596;8.690;2022-11-15T09:34:19;12.60;99.90
14170;DHT22;63889;50.596;8.690;2022-11-15T09:36:46;12.60;99.90
14170;DHT22;63889;50.596;8.690;2022-11-15T09:39:11;12.70;99.90
14170;DHT22;63889;50.596;8.690;2022-11-15T09:44:44;12.70;99.90
14170;DHT22;63889;50.596;8.690;2022-11-15T09:50:11;12.50;99.90
14170;DHT22;63889;50.596;8.690;2022-11-15T09:52:41;12.50;99.90
14170;DHT22;63889;50.596;8.690;2022-11-15T09:55:10;12.60;99.90
14170;DHT22;63889;50.596;8.690;2022-11-15T09:57:44;12.70;99.90
14170;DHT22;63889;50.596;8.690;2022-11-15T10:00:35;12.60;99.90
14170;DHT22;63889;50.596;8.690;2022-11-15T10:03:12;12.70;99.90
14170;DHT22;63889;50.596;8.690;2022-11-15T10:05:50;12.90;99.90
14170;DHT22;63889;50.596;8.690;2022-11-15T10:08:43;13.00;99.90
14170;DHT22;63889;50.596;8.690;2022-11-15T10:11:17;13.00;99.90
14170;DHT22;63889;50.596;8.690;2022-11-15T10:13:45;13.10;99.90
14170;DHT22;63889;50.596;8.690;2022-11-15T10:24:44;13.10;99.90
14170;DHT22;63889;50.596;8.690;2022-11-15T10:27:13;13.20;99.90
14170;DHT22;63889;50.596;8.690;2022-11-15T10:29:44;13.30;99.90
14170;DHT22;63889;50.596;8.690;2022-11-15T10:32:12;13.30;99.90
14170;DHT22;63889;50.596;8.690;2022-11-15T10:34:39;13.20;99.90
14170;DHT22;63889;50.596;8.690;2022-11-15T10:37:04;13.40;99.90
14170;DHT22;63889;50.596;8.690;2022-11-15T10:39:30;13.40;99.90
14170;DHT22;63889;50.596;8.690;2022-11-15T10:41:55;13.50;99.90
14170;DHT22;63889;50.596;8.690;2022-11-15T10:44:23;13.50;99.90
14170;DHT22;63889;50.596;8.690;2022-11-15T10:49:31;13.50;99.90
14170;DHT22;63889;50.596;8.690;2022-11-15T10:52:17;13.50;99.90
14170;DHT22;63889;50.596;8.690;2022-11-15T10:57:18;13.50;99.90
14170;DHT22;63889;50.596;8.690;2022-11-15T10:59:56;13.60;99.90
14170;DHT22;63889;50.596;8.690;2022-11-15T11:02:55;13.70;99.90
14170;DHT22;63889;50.596;8.690;2022-11-15T11:05:47;13.70;99.90
14170;DHT22;63889;50.596;8.690;2022-11-15T11:10:38;13.80;99.90
14170;DHT22;63889;50.596;8.690;2022-11-15T11:13:15;14.00;99.90
14170;DHT22;63889;50.596;8.690;2022-11-15T11:15:47;14.30;99.90
14170;DHT22;63889;50.596;8.690;2022-11-15T11:18:40;14.40;99.90
14170;DHT22;63889;50.596;8.690;2022-11-15T11:21:10;14.30;99.90
14170;DHT22;63889;50.596;8.690;2022-11-15T11:24:04;14.30;99.90
14170;DHT22;63889;50.596;8.690;2022-11-15T11:26:57;14.30;99.90
14170;DHT22;63889;50.596;8.690;2022-11-15T11:32:30;14.40;99.90
14170;DHT22;63889;50.596;8.690;2022-11-15T11:35:13;14.80;99.90
14170;DHT22;63889;50.596;8.690;2022-11-15T11:41:03;14.80;99.90
14170;DHT22;63889;50.596;8.690;2022-11-15T11:43:36;14.70;99.90
14170;DHT22;63889;50.596;8.690;2022-11-15T11:49:10;14.80;99.90
14170;DHT22;63889;50.596;8.690;2022-11-15T11:52:11;14.60;99.90
14170;DHT22;63889;50.596;8.690;2022-11-15T11:55:10;14.50;99.90
14170;DHT22;63889;50.596;8.690;2022-11-15T12:00:39;14.40;99.90
14170;DHT22;63889;50.596;8.690;2022-11-15T12:03:34;14.30;99.90
14170;DHT22;63889;50.596;8.690;2022-11-15T12:06:06;14.30;99.90
14170;DHT22;63889;50.596;8.690;2022-11-15T12:08:53;14.50;99.90
14170;DHT22;63889;50.596;8.690;2022-11-15T12:12:05;14.50;99.90
14170;DHT22;63889;50.596;8.690;2022-11-15T12:14:47;14.70;99.90
14170;DHT22;63889;50.596;8.690;2022-11-15T12:17:17;14.60;99.90
14170;DHT22;63889;50.596;8.690;2022-11-15T12:19:45;14.60;99.90
14170;DHT22;63889;50.596;8.690;2022-11-15T12:22:16;14.70;99.90
14170;DHT22;63889;50.596;8.690;2022-11-15T12:24:52;14.70;99.90
14170;DHT22;63889;50.596;8.690;2022-11-15T12:27:31;14.50;99.90
14170;DHT22;63889;50.596;8.690;2022-11-15T12:30:04;14.40;99.90
14170;DHT22;63889;50.596;8.690;2022-11-15T12:32:37;14.60;99.90
14170;DHT22;63889;50.596;8.690;2022-11-15T12:35:06;14.60;99.90
14170;DHT22;63889;50.596;8.690;2022-11-15T12:37:49;14.60;99.90
14170;DHT22;63889;50.596;8.690;2022-11-15T12:40:25;14.10;99.90
14170;DHT22;63889;50.596;8.690;2022-11-15T12:45:43;14.10;99.90
14170;DHT22;63889;50.596;8.690;2022-11-15T12:51:01;14.00;99.90
14170;DHT22;63889;50.596;8.690;2022-11-15T12:53:31;14.10;99.90
14170;DHT22;63889;50.596;8.690;2022-11-15T13:01:08;14.20;99.90
14170;DHT22;63889;50.596;8.690;2022-11-15T13:03:34;14.20;99.90
14170;DHT22;63889;50.596;8.690;2022-11-15T13:06:03;14.20;99.90
14170;DHT22;63889;50.596;8.690;2022-11-15T13:08:40;14.20;99.90
14170;DHT22;63889;50.596;8.690;2022-11-15T13:11:42;14.20;99.90
14170;DHT22;63889;50.596;8.690;2022-11-15T13:19:49;14.10;99.90
14170;DHT22;63889;50.596;8.690;2022-11-15T13:22:17;14.00;99.90
14170;DHT22;63889;50.596;8.690;2022-11-15T13:25:02;13.80;99.90
14170;DHT22;63889;50.596;8.690;2022-11-15T13:27:28;14.10;99.90
14170;DHT22;63889;50.596;8.690;2022-11-15T13:29:54;13.90;99.90
14170;DHT22;63889;50.596;8.690;2022-11-15T13:32:20;14.00;99.90
14170;DHT22;63889;50.596;8.690;2022-11-15T13:34:48;13.90;99.90
14170;DHT22;63889;50.596;8.690;2022-11-15T13:37:34;13.80;99.90
14170;DHT22;63889;50.596;8.690;2022-11-15T13:40:36;13.80;99.90
14170;DHT22;63889;50.596;8.690;2022-11-15T13:43:27;13.80;99.90
14170;DHT22;63889;50.596;8.690;2022-11-15T13:48:37;14.10;99.90
14170;DHT22;63889;50.596;8.690;2022-11-15T13:51:07;14.10;99.90
14170;DHT22;63889;50.596;8.690;2022-11-15T13:53:37;14.00;99.90
14170;DHT22;63889;50.596;8.690;2022-11-15T13:56:04;14.00;99.90
14170;DHT22;63889;50.596;8.690;2022-11-15T13:58:30;14.30;99.90
14170;DHT22;63889;50.596;8.690;2022-11-15T14:01:01;14.30;99.90
14170;DHT22;63889;50.596;8.690;2022-11-15T14:03:34;14.10;99.90
14170;DHT22;63889;50.596;8.690;2022-11-15T14:06:11;14.10;99.90
14170;DHT22;63889;50.596;8.690;2022-11-15T14:08:41;13.90;99.90
14170;DHT22;63889;50.596;8.690;2022-11-15T14:11:17;13.90;99.90
14170;DHT22;63889;50.596;8.690;2022-11-15T14:16:42;13.70;99.90
14170;DHT22;63889;50.596;8.690;2022-11-15T14:24:33;13.50;99.90
14170;DHT22;63889;50.596;8.690;2022-11-15T14:27:16;13.60;99.90
14170;DHT22;63889;50.596;8.690;2022-11-15T14:29:42;13.60;99.90
14170;DHT22;63889;50.596;8.690;2022-11-15T14:34:42;13.60;99.90
14170;DHT22;63889;50.596;8.690;2022-11-15T14:37:26;13.60;99.90
14170;DHT22;63889;50.596;8.690;2022-11-15T14:39:53;13.60;99.90
14170;DHT22;63889;50.596;8.690;2022-11-15T14:42:20;13.60;99.90
14170;DHT22;63889;50.596;8.690;2022-11-15T14:44:45;13.60;99.90
14170;DHT22;63889;50.596;8.690;2022-11-15T14:47:11;13.70;99.90
14170;DHT22;63889;50.596;8.690;2022-11-15T14:49:37;13.70;99.90
14170;DHT22;63889;50.596;8.690;2022-11-15T14:52:12;13.60;99.90
14170;DHT22;63889;50.596;8.690;2022-11-15T14:54:41;13.50;99.90
14170;DHT22;63889;50.596;8.690;2022-11-15T14:57:07;13.60;99.90
14170;DHT22;63889;50.596;8.690;2022-11-15T14:59:32;13.50;99.90
14170;DHT22;63889;50.596;8.690;2022-11-15T15:01:58;13.60;99.90
14170;DHT22;63889;50.596;8.690;2022-11-15T15:04:24;13.40;99.90
14170;DHT22;63889;50.596;8.690;2022-11-15T15:06:49;13.30;99.90
14170;DHT22;63889;50.596;8.690;2022-11-15T15:09:15;13.30;99.90
14170;DHT22;63889;50.596;8.690;2022-11-15T15:11:40;13.20;99.90
14170;DHT22;63889;50.596;8.690;2022-11-15T15:14:07;13.20;99.90
14170;DHT22;63889;50.596;8.690;2022-11-15T15:16:33;13.10;99.90
14170;DHT22;63889;50.596;8.690;2022-11-15T15:18:58;13.20;99.90
14170;DHT22;63889;50.596;8.690;2022-11-15T15:21:26;13.10;99.90
14170;DHT22;63889;50.596;8.690;2022-11-15T15:23:56;13.10;99.90
14170;DHT22;63889;50.596;8.690;2022-11-15T15:26:25;13.10;99.90
14170;DHT22;63889;50.596;8.690;2022-11-15T15:28:51;13.00;99.90
14170;DHT22;63889;50.596;8.690;2022-11-15T15:31:17;13.10;99.90
14170;DHT22;63889;50.596;8.690;2022-11-15T15:33:43;13.10;99.90
14170;DHT22;63889;50.596;8.690;2022-11-15T15:36:12;13.10;99.90
14170;DHT22;63889;50.596;8.690;2022-11-15T15:38:38;13.00;99.90
14170;DHT22;63889;50.596;8.690;2022-11-15T15:41:12;13.00;99.90
14170;DHT22;63889;50.596;8.690;2022-11-15T15:43:38;13.00;99.90
14170;DHT22;63889;50.596;8.690;2022-11-15T15:46:07;13.10;99.90
14170;DHT22;63889;50.596;8.690;2022-11-15T15:48:33;13.00;99.90
14170;DHT22;63889;50.596;8.690;2022-11-15T15:50:58;13.00;99.90
14170;DHT22;63889;50.596;8.690;2022-11-15T15:53:24;13.00;99.90
14170;DHT22;63889;50.596;8.690;2022-11-15T15:55:49;13.10;99.90
14170;DHT22;63889;50.596;8.690;2022-11-15T15:58:15;13.10;99.90
14170;DHT22;63889;50.596;8.690;2022-11-15T16:00:40;13.20;99.90
14170;DHT22;63889;50.596;8.690;2022-11-15T16:03:06;13.20;99.90
14170;DHT22;63889;50.596;8.690;2022-11-15T16:05:31;13.10;99.90
14170;DHT22;63889;50.596;8.690;2022-11-15T16:07:57;13.20;99.90
14170;DHT22;63889;50.596;8.690;2022-11-15T16:10:31;13.10;99.90
14170;DHT22;63889;50.596;8.690;2022-11-15T16:12:57;13.20;99.90
14170;DHT22;63889;50.596;8.690;2022-11-15T16:15:25;13.10;99.90
14170;DHT22;63889;50.596;8.690;2022-11-15T16:17:53;13.10;99.90
14170;DHT22;63889;50.596;8.690;2022-11-15T16:20:33;13.10;99.90
14170;DHT22;63889;50.596;8.690;2022-11-15T16:23:00;13.10;99.90
14170;DHT22;63889;50.596;8.690;2022-11-15T16:25:26;13.10;99.90
14170;DHT22;63889;50.596;8.690;2022-11-15T16:27:52;13.00;99.90
14170;DHT22;63889;50.596;8.690;2022-11-15T16:30:20;13.00;99.90
14170;DHT22;63889;50.596;8.690;2022-11-15T16:32:46;12.90;99.90
14170;DHT22;63889;50.596;8.690;2022-11-15T16:35:13;12.90;99.90
14170;DHT22;63889;50.596;8.690;2022-11-15T16:37:39;12.90;99.90
14170;DHT22;63889;50.596;8.690;2022-11-15T16:40:27;12.90;99.90
14170;DHT22;63889;50.596;8.690;2022-11-15T16:42:53;13.00;99.90
14170;DHT22;63889;50.596;8.690;2022-11-15T16:45:18;12.90;99.90
14170;DHT22;63889;50.596;8.690;2022-11-15T16:47:44;12.80;99.90
14170;DHT22;63889;50.596;8.690;2022-11-15T16:50:20;12.80;99.90
14170;DHT22;63889;50.596;8.690;2022-11-15T16:52:53;12.90;99.90
14170;DHT22;63889;50.596;8.690;2022-11-15T16:55:21;12.90;99.90
14170;DHT22;63889;50.596;8.690;2022-11-15T16:57:47;12.90;99.90
14170;DHT22;63889;50.596;8.690;2022-11-15T17:00:14;12.80;99.90
14170;DHT22;63889;50.596;8.690;2022-11-15T17:02:42;12.80;99.90
14170;DHT22;63889;50.596;8.690;2022-11-15T17:05:08;12.80;99.90
14170;DHT22;63889;50.596;8.690;2022-11-15T17:07:34;12.80;99.90
14170;DHT22;63889;50.596;8.690;2022-11-15T17:09:59;12.90;99.90
14170;DHT22;63889;50.596;8.690;2022-11-15T17:12:25;12.90;99.90
14170;DHT22;63889;50.596;8.690;2022-11-15T17:14:50;12.80;99.90
14170;DHT22;63889;50.596;8.690;2022-11-15T17:17:16;12.80;99.90
14170;DHT22;63889;50.596;8.690;2022-11-15T17:19:41;12.80;99.90
14170;DHT22;63889;50.596;8.690;2022-11-15T17:22:07;12.80;99.90